Time;durP1;ratioP1;P1;durP2;ratioP2;P2;SDS_P1;SDS_P2;PMS_P1;PMS_P2;Temp;Humidity;BMP_temperature;BMP_pressure;BME280_temperature;BME280_humidity;BME280_pressure;Samples;Min_cycle;Max_cycle;Signal;HPM_P1;HPM_P2
2022/07/29 00:01:49;;;;;;;;;4.00;4.00;;;;;23.80;33.25;101098.63;5036008;28;45331;-66
2022/07/29 00:04:14;;;;;;;;;6.33;6.00;;;;;23.78;33.17;101096.06;5033317;28;45556;-65
2022/07/29 00:06:40;;;;;;;;;6.00;6.00;;;;;23.76;33.06;101102.41;5032685;28;46045;-66
2022/07/29 00:09:06;;;;;;;;;7.00;6.00;;;;;23.68;33.29;101095.59;5035374;28;45458;-67
2022/07/29 00:11:32;;;;;;;;;4.33;4.33;;;;;23.64;33.64;101098.47;5037496;28;45350;-66
2022/07/29 00:13:58;;;;;;;;;5.33;5.00;;;;;23.63;33.51;101094.06;5036408;28;45463;-67
2022/07/29 00:16:23;;;;;;;;;7.00;5.33;;;;;23.49;33.98;101071.53;5033157;28;45810;-68
2022/07/29 00:18:49;;;;;;;;;5.67;4.33;;;;;23.54;33.80;101082.00;5033204;28;45414;-67
2022/07/29 00:21:14;;;;;;;;;8.00;7.00;;;;;23.44;33.72;101062.84;5032347;28;46092;-67
2022/07/29 00:23:40;;;;;;;;;5.33;5.33;;;;;23.43;33.97;101084.28;5034669;28;45312;-67
2022/07/29 00:26:12;;;;;;;;;5.67;5.67;;;;;23.39;34.06;101085.38;5036613;28;45492;-65
2022/07/29 00:28:38;;;;;;;;;7.00;4.00;;;;;23.34;34.04;101064.19;5031540;28;45417;-67
2022/07/29 00:31:03;;;;;;;;;4.67;4.67;;;;;23.39;34.22;101069.31;5032877;28;45390;-67
2022/07/29 00:33:29;;;;;;;;;6.00;5.33;;;;;23.44;34.44;101069.97;5032012;28;45439;-66
2022/07/29 00:35:58;;;;;;;;;6.00;5.00;;;;;23.08;34.39;101018.16;5048351;28;48468;-67
2022/07/29 00:38:24;;;;;;;;;7.00;7.00;;;;;23.22;34.55;101062.09;5032382;28;45317;-66
2022/07/29 00:40:59;;;;;;;;;6.67;6.67;;;;;23.17;34.89;101072.13;5033364;28;45657;-66
2022/07/29 00:43:24;;;;;;;;;8.00;6.67;;;;;23.13;34.83;101066.03;5035950;28;45446;-68
2022/07/29 00:45:59;;;;;;;;;7.00;7.00;;;;;22.88;35.22;101041.34;5033369;28;46066;-65
2022/07/29 00:48:25;;;;;;;;;7.00;6.67;;;;;23.08;35.02;101066.25;5033749;28;45517;-67
2022/07/29 00:50:50;;;;;;;;;7.00;5.00;;;;;23.04;35.10;101072.69;5032983;28;45452;-66
2022/07/29 00:53:22;;;;;;;;;6.00;5.67;;;;;23.02;35.20;101073.69;5035543;28;45912;-66
2022/07/29 00:55:48;;;;;;;;;5.67;5.00;;;;;23.02;35.27;101066.53;5036213;28;45517;-66
2022/07/29 00:58:14;;;;;;;;;7.33;5.00;;;;;23.08;35.00;101066.25;5038595;28;45517;-67
2022/07/29 01:00:40;;;;;;;;;7.00;5.67;;;;;23.03;34.90;101054.91;5039058;28;45449;-67
2022/07/29 01:03:07;;;;;;;;;5.00;5.00;;;;;23.14;35.25;101064.25;5043442;28;45470;-65
2022/07/29 01:05:34;;;;;;;;;7.00;6.00;;;;;23.08;35.51;101062.72;5039731;28;45497;-65
2022/07/29 01:08:01;;;;;;;;;5.67;4.00;;;;;23.05;35.59;101058.38;5040131;28;45366;-66
2022/07/29 01:10:29;;;;;;;;;5.67;5.00;;;;;23.13;35.36;101060.69;5041490;28;45493;-66
2022/07/29 01:12:58;;;;;;;;;4.00;4.00;;;;;23.18;35.55;101060.50;5044516;28;45319;-66
2022/07/29 01:15:24;;;;;;;;;8.67;5.33;;;;;23.09;35.55;101051.09;5039727;28;45668;-67
2022/07/29 01:17:56;;;;;;;;;6.00;6.00;;;;;23.08;35.81;101058.22;5037775;28;45489;-66
2022/07/29 01:20:40;;;;;;;;;5.00;5.00;;;;;23.09;35.66;101067.13;5039306;28;45558;-67
2022/07/29 01:23:16;;;;;;;;;5.00;4.33;;;;;23.08;35.84;101060.03;5039753;28;45557;-66
2022/07/29 01:26:39;;;;;;;;;4.67;4.67;;;;;22.95;35.56;101041.00;5037575;28;46026;-66
2022/07/29 01:29:35;;;;;;;;;7.33;4.33;;;;;22.88;35.82;101044.88;4996731;28;45542;-67
2022/07/29 01:32:10;;;;;;;;;4.33;4.33;;;;;23.04;35.86;101070.00;4994468;28;45467;-67
2022/07/29 01:34:42;;;;;;;;;4.00;4.00;;;;;23.07;36.07;101072.53;5031346;28;45930;-66
2022/07/29 01:37:27;;;;;;;;;6.00;6.00;;;;;22.92;35.98;101049.16;5037550;28;46248;-66
2022/07/29 01:39:56;;;;;;;;;6.00;6.00;;;;;23.19;35.79;101089.81;5041359;28;45987;-67
2022/07/29 01:42:50;;;;;;;;;5.00;5.00;;;;;23.21;35.86;101074.59;5035093;28;45525;-67
2022/07/29 01:45:38;;;;;;;;;4.67;4.67;;;;;23.25;35.88;101075.31;5025692;28;45454;-66
2022/07/29 01:48:16;;;;;;;;;5.33;4.00;;;;;23.25;35.80;101077.97;5035568;28;45581;-66
2022/07/29 01:50:53;;;;;;;;;5.00;4.00;;;;;23.19;35.77;101067.59;5035261;28;46924;-66
2022/07/29 01:53:32;;;;;;;;;4.33;4.33;;;;;23.21;35.94;101066.56;5021101;28;45450;-68
2022/07/29 01:56:01;;;;;;;;;7.00;5.00;;;;;23.31;35.84;101082.19;5035690;28;45465;-66
2022/07/29 01:58:31;;;;;;;;;4.33;4.33;;;;;23.31;35.98;101079.53;5035690;28;45875;-66
2022/07/29 02:00:58;;;;;;;;;4.67;4.67;;;;;23.28;36.22;101080.53;5035151;28;45941;-67
2022/07/29 02:03:26;;;;;;;;;5.00;5.00;;;;;23.31;36.23;101080.38;5035132;28;45469;-66
2022/07/29 02:05:53;;;;;;;;;4.33;4.33;;;;;23.27;36.32;101081.44;5034559;28;45419;-66
2022/07/29 02:08:20;;;;;;;;;5.67;4.00;;;;;23.27;36.05;101076.09;5035162;28;45459;-66
2022/07/29 02:10:48;;;;;;;;;5.00;5.00;;;;;23.28;36.23;101081.38;5034663;28;45390;-66
2022/07/29 02:13:16;;;;;;;;;5.00;5.00;;;;;23.29;36.38;101083.13;5034468;28;45777;-66
2022/07/29 02:15:44;;;;;;;;;8.00;6.33;;;;;23.22;36.26;101070.97;5035527;28;46894;-67
2022/07/29 02:18:15;;;;;;;;;5.00;5.00;;;;;23.23;36.86;101077.16;5034753;28;46214;-67
2022/07/29 02:20:45;;;;;;;;;6.00;6.00;;;;;23.09;36.84;101075.16;5034697;28;45433;-66
2022/07/29 02:23:12;;;;;;;;;5.33;5.33;;;;;23.10;36.51;101079.53;5037982;28;45506;-69
2022/07/29 02:25:40;;;;;;;;;7.00;6.00;;;;;23.13;36.39;101074.06;5033600;28;45506;-65
2022/07/29 02:28:07;;;;;;;;;4.00;4.00;;;;;23.16;36.61;101079.28;5033181;28;47218;-67
2022/07/29 02:30:36;;;;;;;;;5.00;4.67;;;;;23.07;36.51;101074.34;5034525;28;45521;-66
2022/07/29 02:33:04;;;;;;;;;5.67;5.00;;;;;23.02;36.43;101079.03;5034102;28;45770;-68
2022/07/29 02:35:30;;;;;;;;;5.00;5.00;;;;;23.06;36.69;101083.28;5038148;28;45396;-68
2022/07/29 02:40:49;;;;;;;;;2.33;2.33;;;;;23.07;36.59;101077.00;5034419;28;45655;-67
2022/07/29 02:43:17;;;;;;;;;6.00;4.00;;;;;23.10;36.45;101079.53;5034791;28;45748;-66
2022/07/29 02:45:43;;;;;;;;;6.00;6.00;;;;;23.07;36.60;101069.00;5034524;28;45383;-66
2022/07/29 02:48:18;;;;;;;;;5.67;5.00;;;;;22.97;36.46;101067.63;5034101;28;46223;-67
2022/07/29 02:50:57;;;;;;;;;7.33;5.33;;;;;23.10;36.67;101078.69;5034498;28;45566;-66
2022/07/29 02:53:36;;;;;;;;;5.00;5.00;;;;;23.12;36.60;101079.47;5033758;28;45716;-66
2022/07/29 02:56:11;;;;;;;;;6.67;5.33;;;;;22.95;36.82;101050.81;5038510;28;45339;-66
2022/07/29 02:58:51;;;;;;;;;8.67;5.33;;;;;23.16;36.48;101091.75;5036327;28;45429;-66
2022/07/29 03:01:22;;;;;;;;;5.00;5.00;;;;;23.08;36.92;101090.28;5033895;28;45828;-66
2022/07/29 03:03:50;;;;;;;;;6.00;5.33;;;;;22.91;36.82;101070.59;5033673;28;45498;-67
2022/07/29 03:06:17;;;;;;;;;6.00;6.00;;;;;22.96;36.96;101076.59;5033907;28;45460;-67
2022/07/29 03:08:45;;;;;;;;;5.33;5.33;;;;;22.96;36.86;101087.28;5034506;28;46094;-67
2022/07/29 03:11:12;;;;;;;;;6.33;4.67;;;;;22.91;37.07;101074.13;5036651;28;45919;-66
2022/07/29 03:13:38;;;;;;;;;7.67;5.00;;;;;22.89;37.12;101089.34;5033050;28;45733;-65
2022/07/29 03:16:05;;;;;;;;;6.00;6.00;;;;;22.91;37.14;101095.47;5034517;28;45517;-66
2022/07/29 03:18:32;;;;;;;;;5.00;5.00;;;;;22.98;37.05;101098.75;5032567;28;46194;-66
2022/07/29 03:20:58;;;;;;;;;5.00;4.00;;;;;22.98;36.90;101101.44;5034249;28;45875;-66
2022/07/29 03:23:25;;;;;;;;;5.67;4.00;;;;;23.00;36.74;101094.25;5033495;28;45394;-67
2022/07/29 03:25:52;;;;;;;;;6.33;5.67;;;;;22.96;36.49;101082.78;5034098;28;45455;-66
2022/07/29 03:28:17;;;;;;;;;4.00;4.00;;;;;22.99;36.78;101095.16;5033586;28;45652;-67
2022/07/29 03:30:43;;;;;;;;;5.67;5.33;;;;;23.00;36.41;101097.78;5033969;28;45862;-66
2022/07/29 03:33:09;;;;;;;;;7.67;5.33;;;;;22.95;36.79;101091.75;5032783;28;45439;-66
2022/07/29 03:35:34;;;;;;;;;5.67;4.00;;;;;22.99;36.79;101100.50;5034091;28;45566;-66
2022/07/29 03:38:06;;;;;;;;;6.67;6.00;;;;;23.00;36.81;101099.59;5035060;28;46480;-67
2022/07/29 03:40:38;;;;;;;;;5.00;5.00;;;;;22.93;37.24;101092.75;5033112;28;45455;-66
2022/07/29 03:43:05;;;;;;;;;4.00;4.00;;;;;22.86;36.58;101084.13;5036218;28;45404;-67
2022/07/29 03:45:33;;;;;;;;;6.67;5.67;;;;;22.94;36.63;101097.16;5034980;28;45625;-66
2022/07/29 03:48:10;;;;;;;;;6.00;5.00;;;;;22.84;36.69;101089.53;5037720;28;45197;-66
2022/07/29 03:50:39;;;;;;;;;5.00;5.00;;;;;22.85;36.72;101101.97;5034563;28;45423;-65
2022/07/29 03:53:05;;;;;;;;;5.33;5.33;;;;;22.83;37.10;101097.63;5035567;28;45351;-68
2022/07/29 03:55:41;;;;;;;;;0.00;0.00;;;;;22.83;37.10;101095.81;5037188;28;45357;-66
2022/07/29 03:58:08;;;;;;;;;5.67;5.67;;;;;22.83;37.30;101101.16;5036380;28;45450;-67
2022/07/29 04:00:36;;;;;;;;;5.00;5.00;;;;;22.79;37.13;101104.91;5037301;28;45386;-67
2022/07/29 04:03:03;;;;;;;;;5.00;5.00;;;;;22.76;37.36;101109.50;5037774;28;45359;-66
2022/07/29 04:05:29;;;;;;;;;4.00;4.00;;;;;22.76;37.27;101107.72;5039728;28;45493;-67
2022/07/29 04:07:54;;;;;;;;;6.00;6.00;;;;;22.76;37.28;101110.38;5035390;28;45541;-66
2022/07/29 04:10:20;;;;;;;;;4.33;4.00;;;;;22.69;37.54;101108.03;5034204;28;45473;-68
2022/07/29 04:12:53;;;;;;;;;6.00;5.00;;;;;22.73;37.17;101113.19;5033325;28;45513;-67
2022/07/29 04:15:19;;;;;;;;;5.33;5.33;;;;;22.77;37.29;101116.56;5029936;28;45515;-66
2022/07/29 04:17:45;;;;;;;;;5.00;5.00;;;;;22.77;37.07;101103.22;5037353;28;46172;-67
2022/07/29 04:20:14;;;;;;;;;7.33;5.33;;;;;22.68;37.36;101084.94;5033431;28;45640;-66
2022/07/29 04:22:40;;;;;;;;;5.00;5.00;;;;;22.83;37.24;101111.84;5032999;28;45544;-67
2022/07/29 04:25:06;;;;;;;;;5.00;4.33;;;;;22.81;36.99;101113.72;5036745;28;45703;-67
2022/07/29 04:27:32;;;;;;;;;4.00;4.00;;;;;22.84;37.01;101110.91;5033327;28;47078;-66
2022/07/29 04:29:57;;;;;;;;;6.33;6.00;;;;;22.82;36.95;101099.41;5035677;28;45472;-67
2022/07/29 04:32:26;;;;;;;;;5.00;5.00;;;;;22.87;37.35;101107.22;5037060;28;45481;-67
2022/07/29 04:34:52;;;;;;;;;5.33;5.33;;;;;22.82;37.60;101115.44;5036608;28;45679;-66
2022/07/29 04:37:18;;;;;;;;;5.33;5.33;;;;;22.65;37.56;101101.94;5036196;28;46388;-67
2022/07/29 04:39:44;;;;;;;;;7.00;7.00;;;;;22.71;37.58;101115.06;5034504;28;45445;-67
2022/07/29 04:42:10;;;;;;;;;5.00;5.00;;;;;22.68;37.57;101106.28;5040085;28;45457;-66
2022/07/29 04:44:35;;;;;;;;;6.67;6.67;;;;;22.80;37.45;101124.44;5036818;28;45619;-66
2022/07/29 04:47:04;;;;;;;;;6.00;6.00;;;;;22.74;37.10;101108.72;5037852;28;46108;-66
2022/07/29 04:49:30;;;;;;;;;8.00;5.00;;;;;22.94;37.45;101134.53;5036836;28;45447;-66
2022/07/29 04:51:56;;;;;;;;;6.33;6.33;;;;;22.94;37.49;101129.19;5036301;28;45448;-66
2022/07/29 04:54:25;;;;;;;;;7.00;6.67;;;;;22.81;37.50;101116.38;5035820;28;45334;-66
2022/07/29 04:56:50;;;;;;;;;10.00;8.00;;;;;22.85;38.05;101123.34;5036090;28;45573;-66
2022/07/29 04:59:22;;;;;;;;;6.67;6.67;;;;;22.55;37.81;101071.25;5035754;28;45952;-66
2022/07/29 05:01:47;;;;;;;;;9.67;8.00;;;;;22.93;38.19;101120.31;5037651;28;45469;-66
2022/07/29 05:04:13;;;;;;;;;9.00;7.00;;;;;23.03;37.74;101132.38;5040266;28;45481;-66
2022/07/29 05:06:38;;;;;;;;;9.00;7.67;;;;;23.03;38.32;101131.50;5036814;28;46081;-66
2022/07/29 05:09:16;;;;;;;;;9.67;8.00;;;;;23.06;38.07;101112.66;5035883;28;45307;-66
2022/07/29 05:11:42;;;;;;;;;8.00;8.00;;;;;23.07;38.18;101103.72;5035974;28;45601;-67
2022/07/29 05:14:07;;;;;;;;;6.67;6.67;;;;;23.29;37.74;101123.19;5035896;28;45448;-67
2022/07/29 05:16:33;;;;;;;;;7.33;7.33;;;;;23.41;37.35;101128.94;5035895;28;46443;-66
2022/07/29 05:18:59;;;;;;;;;7.00;7.00;;;;;23.36;37.14;101105.09;5035974;28;45385;-68
2022/07/29 05:21:24;;;;;;;;;9.33;6.33;;;;;23.58;37.00;101117.47;5036129;28;45682;-67
2022/07/29 05:23:51;;;;;;;;;6.33;6.33;;;;;23.63;36.58;101110.09;5035744;28;45780;-66
2022/07/29 05:26:16;;;;;;;;;6.67;6.67;;;;;23.80;36.60;101133.41;5035316;28;46067;-67
2022/07/29 05:28:42;;;;;;;;;6.67;6.67;;;;;23.84;36.35;101111.78;5036214;28;45268;-66
2022/07/29 05:31:07;;;;;;;;;8.00;8.00;;;;;23.93;36.29;101123.88;5035886;28;45406;-66
2022/07/29 05:33:33;;;;;;;;;8.33;7.00;;;;;23.97;36.36;101120.13;5036278;28;45319;-68
2022/07/29 05:36:07;;;;;;;;;5.67;5.67;;;;;23.90;36.11;101107.97;5035996;28;45378;-67
2022/07/29 05:38:35;;;;;;;;;5.67;5.00;;;;;23.99;36.58;101125.38;5035907;28;45488;-66
2022/07/29 05:41:00;;;;;;;;;8.00;8.00;;;;;23.97;36.52;101128.16;5034978;28;45694;-66
2022/07/29 05:43:27;;;;;;;;;7.33;6.00;;;;;23.97;36.70;101132.63;5036001;28;45433;-67
2022/07/29 05:46:02;;;;;;;;;8.67;7.33;;;;;23.78;36.92;101101.41;5035247;28;46681;-66
2022/07/29 05:48:27;;;;;;;;;9.33;8.33;;;;;23.93;36.61;101126.53;5023630;28;45524;-67
2022/07/29 05:50:54;;;;;;;;;10.00;7.67;;;;;23.95;36.53;101127.34;5035180;28;45766;-66
2022/07/29 05:53:19;;;;;;;;;7.00;7.00;;;;;23.99;36.59;101136.97;5034341;28;45841;-66
2022/07/29 05:55:45;;;;;;;;;10.67;8.33;;;;;23.87;37.94;101122.38;5034816;28;45386;-67
2022/07/29 05:58:17;;;;;;;;;8.00;6.67;;;;;23.73;37.85;101100.72;5035081;28;45441;-67
2022/07/29 06:00:43;;;;;;;;;9.00;7.00;;;;;24.00;36.83;101146.72;5035491;28;45585;-65
2022/07/29 06:03:08;;;;;;;;;10.00;7.00;;;;;23.80;38.19;101130.72;5035158;28;45373;-67
2022/07/29 06:05:34;;;;;;;;;8.67;8.67;;;;;23.87;38.04;101154.47;5035152;28;45411;-65
2022/07/29 06:07:59;;;;;;;;;8.33;8.33;;;;;23.94;37.69;101151.47;5036959;28;45743;-66
2022/07/29 06:10:26;;;;;;;;;9.67;9.33;;;;;24.03;37.66;101151.91;5039904;28;45529;-65
2022/07/29 06:12:53;;;;;;;;;10.67;7.33;;;;;24.08;37.07;101146.34;5037377;28;45529;-67
2022/07/29 06:15:18;;;;;;;;;11.00;9.00;;;;;24.12;36.42;101148.78;5035553;28;46252;-68
2022/07/29 06:17:44;;;;;;;;;9.00;8.00;;;;;24.12;36.57;101150.63;5036953;28;45418;-67
2022/07/29 06:20:10;;;;;;;;;8.00;8.00;;;;;24.26;36.32;101166.00;5038609;28;45443;-66
2022/07/29 06:22:35;;;;;;;;;9.00;5.00;;;;;24.33;36.17;101157.59;5037243;28;45366;-67
2022/07/29 06:25:03;;;;;;;;;7.67;6.33;;;;;24.38;36.47;101154.69;5035549;28;45668;-66
2022/07/29 06:27:29;;;;;;;;;6.67;6.67;;;;;24.48;35.58;101169.41;5029934;28;45722;-67
2022/07/29 06:29:56;;;;;;;;;9.33;8.00;;;;;24.43;35.26;101147.31;5034534;28;45790;-68
2022/07/29 06:32:22;;;;;;;;;6.33;6.33;;;;;24.64;35.32;101164.16;5035311;28;45620;-66
2022/07/29 06:34:47;;;;;;;;;7.00;7.00;;;;;24.65;35.43;101149.81;5037436;28;46079;-66
2022/07/29 06:37:14;;;;;;;;;6.33;6.33;;;;;24.78;34.73;101158.09;5038396;28;45684;-67
2022/07/29 06:39:39;;;;;;;;;7.67;6.00;;;;;24.84;34.79;101160.44;5033118;28;45660;-67
2022/07/29 06:42:06;;;;;;;;;5.33;5.33;;;;;24.91;34.94;101166.38;5032370;28;45676;-69
2022/07/29 06:44:35;;;;;;;;;8.00;7.00;;;;;24.95;35.26;101160.78;5035938;28;47086;-69
2022/07/29 06:47:01;;;;;;;;;6.00;5.33;;;;;25.17;35.31;101163.22;5035995;28;45296;-69
2022/07/29 06:49:27;;;;;;;;;7.33;6.67;;;;;25.32;35.15;101161.59;5033054;28;45520;-67
2022/07/29 06:51:53;;;;;;;;;5.00;4.33;;;;;25.60;35.01;101169.03;5030167;28;45850;-69
2022/07/29 06:54:19;;;;;;;;;10.00;8.00;;;;;25.81;34.86;101168.78;5032038;28;45625;-66
2022/07/29 06:56:45;;;;;;;;;8.00;8.00;;;;;26.07;34.64;101172.72;5030543;28;45548;-68
2022/07/29 06:59:12;;;;;;;;;6.67;6.67;;;;;26.21;34.44;101172.81;5032186;28;45366;-69
2022/07/29 07:01:39;;;;;;;;;11.33;10.33;;;;;26.34;34.21;101167.63;5032574;28;45461;-68
2022/07/29 07:04:05;;;;;;;;;9.33;7.67;;;;;26.52;33.33;101172.91;5031453;28;46216;-69
2022/07/29 07:06:31;;;;;;;;;10.00;9.00;;;;;26.59;33.08;101179.66;5031961;28;46019;-69
2022/07/29 07:08:56;;;;;;;;;9.00;9.00;;;;;26.69;33.38;101180.00;5032057;28;45394;-68
2022/07/29 07:11:22;;;;;;;;;7.33;6.33;;;;;26.70;32.88;101160.25;5033265;28;46502;-69
2022/07/29 07:13:48;;;;;;;;;8.67;8.67;;;;;26.86;32.18;101182.53;5031520;28;45559;-67
2022/07/29 07:16:13;;;;;;;;;8.00;7.33;;;;;26.98;32.50;101184.53;5032334;28;45547;-68
2022/07/29 07:18:39;;;;;;;;;8.67;8.00;;;;;27.00;32.42;101182.63;5031643;28;45882;-66
2022/07/29 07:21:05;;;;;;;;;8.33;6.67;;;;;27.08;32.68;101188.38;5032601;28;46149;-67
2022/07/29 07:23:31;;;;;;;;;7.00;6.25;;;;;27.07;32.13;101192.03;5048911;28;46952;-67
2022/07/29 07:25:56;;;;;;;;;6.25;6.25;;;;;27.10;32.05;101195.47;5030989;28;45658;-68
2022/07/29 07:28:22;;;;;;;;;5.75;5.75;;;;;27.15;32.09;101193.41;5034373;28;45861;-68
2022/07/29 07:30:48;;;;;;;;;6.00;6.00;;;;;27.24;32.03;101195.53;5031607;28;45347;-67
2022/07/29 07:33:14;;;;;;;;;7.50;6.75;;;;;27.24;31.98;101179.41;5031526;28;46075;-69
2022/07/29 07:35:40;;;;;;;;;7.75;7.00;;;;;27.28;31.51;101199.78;5031293;28;45365;-67
2022/07/29 07:38:06;;;;;;;;;8.67;7.67;;;;;27.16;31.65;101187.91;5032919;28;45315;-69
2022/07/29 07:40:31;;;;;;;;;11.75;7.00;;;;;27.35;32.24;101200.28;5036448;28;45423;-68
2022/07/29 07:42:57;;;;;;;;;6.00;6.00;;;;;27.41;32.61;101200.78;5035289;28;46495;-67
2022/07/29 07:45:27;;;;;;;;;10.25;7.50;;;;;27.46;32.13;101198.66;5035907;28;45546;-68
2022/07/29 07:47:52;;;;;;;;;6.50;6.00;;;;;27.57;32.93;101194.44;5028643;28;45513;-68
2022/07/29 07:50:18;;;;;;;;;10.25;6.25;;;;;27.62;31.70;101195.91;5031784;28;45434;-67
2022/07/29 07:52:49;;;;;;;;;9.00;7.50;;;;;27.57;31.60;101180.97;5033762;28;46483;-68
2022/07/29 07:55:15;;;;;;;;;8.33;7.33;;;;;27.65;31.73;101203.78;5035740;28;46370;-68
2022/07/29 07:57:41;;;;;;;;;5.75;5.75;;;;;27.58;31.62;101206.94;5032458;28;45481;-66
2022/07/29 08:00:07;;;;;;;;;5.75;5.75;;;;;27.66;31.69;101205.50;5030120;28;45673;-67
2022/07/29 08:02:32;;;;;;;;;9.00;7.50;;;;;27.46;30.89;101179.84;5030690;28;45442;-68
2022/07/29 08:04:59;;;;;;;;;7.00;5.25;;;;;27.69;30.82;101205.31;5029604;28;45873;-69
2022/07/29 08:07:25;;;;;;;;;7.25;7.25;;;;;27.76;30.43;101203.09;5034006;28;45500;-68
2022/07/29 08:09:50;;;;;;;;;6.00;6.00;;;;;27.64;30.69;101196.66;5028818;28;45539;-68
2022/07/29 08:12:16;;;;;;;;;9.00;6.50;;;;;27.70;30.76;101207.03;5033653;28;45587;-67
2022/07/29 08:14:43;;;;;;;;;7.50;7.00;;;;;27.68;30.09;101208.09;5035220;28;45457;-68
2022/07/29 08:17:08;;;;;;;;;8.50;6.00;;;;;27.63;30.95;101194.94;5029688;28;45606;-67
2022/07/29 08:19:34;;;;;;;;;8.00;6.25;;;;;27.78;30.65;101205.69;5032748;28;45457;-67
2022/07/29 08:22:00;;;;;;;;;7.00;5.50;;;;;27.82;30.34;101196.47;5034494;28;45543;-68
2022/07/29 08:24:44;;;;;;;;;8.75;8.00;;;;;27.85;29.64;101202.53;5034992;28;45472;-69
2022/07/29 08:27:11;;;;;;;;;10.25;8.00;;;;;27.81;29.90;101202.78;5029408;28;46592;-68
2022/07/29 08:29:38;;;;;;;;;5.75;5.75;;;;;27.85;29.90;101194.47;5032178;28;45415;-67
2022/07/29 08:32:05;;;;;;;;;7.25;7.00;;;;;27.84;30.09;101167.66;5047967;28;46883;-67
2022/07/29 08:34:31;;;;;;;;;6.50;5.50;;;;;28.14;30.48;101191.72;5030558;28;45592;-66
2022/07/29 08:36:57;;;;;;;;;7.00;7.00;;;;;28.35;29.70;101192.16;5032317;28;45505;-66
2022/07/29 08:39:24;;;;;;;;;6.00;5.00;;;;;28.29;30.03;101160.25;5032284;28;45492;-67
2022/07/29 08:41:51;;;;;;;;;7.50;7.50;;;;;28.42;29.45;101169.25;5030469;28;46007;-67
2022/07/29 08:44:21;;;;;;;;;6.00;5.75;;;;;28.60;29.21;101207.63;5041666;28;45546;-67
2022/07/29 08:46:49;;;;;;;;;5.00;5.00;;;;;28.55;29.64;101204.38;5034998;28;45576;-68
2022/07/29 08:49:18;;;;;;;;;7.50;5.50;;;;;28.61;29.61;101214.72;5031973;28;45628;-68
2022/07/29 08:51:45;;;;;;;;;5.75;5.00;;;;;28.65;28.53;101201.94;5030950;28;46244;-66
2022/07/29 08:54:16;;;;;;;;;6.50;5.00;;;;;28.79;28.55;101195.63;5029002;28;45477;-66
2022/07/29 08:56:42;;;;;;;;;6.00;5.00;;;;;28.86;27.94;101178.06;5030805;28;45394;-66
2022/07/29 08:59:09;;;;;;;;;7.00;6.00;;;;;29.08;28.12;101202.59;5030360;28;45361;-67
2022/07/29 09:01:38;;;;;;;;;5.75;4.00;;;;;28.96;27.33;101200.72;5029987;28;46532;-67
2022/07/29 09:04:09;;;;;;;;;3.50;3.50;;;;;28.78;27.60;101185.78;5032011;28;45974;-67
2022/07/29 09:06:39;;;;;;;;;7.00;5.00;;;;;28.79;27.93;101201.00;5031781;28;45463;-69
2022/07/29 09:09:05;;;;;;;;;7.25;4.75;;;;;28.73;27.87;101186.94;5031163;28;45745;-67
2022/07/29 09:11:32;;;;;;;;;4.00;4.00;;;;;28.77;27.69;101190.31;5034366;28;46322;-66
2022/07/29 09:13:57;;;;;;;;;5.50;5.00;;;;;28.90;27.78;101193.94;5033259;28;45402;-68
2022/07/29 09:16:23;;;;;;;;;5.75;5.25;;;;;28.89;27.89;101202.09;5038626;28;45791;-68
2022/07/29 09:18:48;;;;;;;;;5.00;5.00;;;;;28.74;27.55;101204.88;5039123;28;45354;-66
2022/07/29 09:24:09;;;;;;;;;5.25;5.00;;;;;28.56;27.58;101200.69;5034963;28;45512;-67
2022/07/29 09:26:42;;;;;;;;;4.00;4.00;;;;;28.64;27.64;101201.06;5037750;28;45915;-66
2022/07/29 09:29:13;;;;;;;;;4.75;4.25;;;;;28.73;28.13;101197.72;5039683;28;45445;-65
2022/07/29 09:31:41;;;;;;;;;5.25;5.25;;;;;28.74;27.03;101194.09;5038129;28;45778;-66
2022/07/29 09:34:09;;;;;;;;;6.00;6.00;;;;;28.70;26.96;101186.31;5034272;28;45492;-67
2022/07/29 09:36:46;;;;;;;;;6.25;6.00;;;;;28.75;27.62;101195.81;5035302;28;45616;-67
2022/07/29 09:39:14;;;;;;;;;4.25;4.25;;;;;28.75;27.59;101189.56;5037027;28;45571;-67
2022/07/29 09:41:48;;;;;;;;;5.00;5.00;;;;;28.68;27.30;101191.78;5033953;28;48142;-66
2022/07/29 09:44:14;;;;;;;;;6.50;4.50;;;;;28.56;27.59;101180.97;5032656;28;45418;-66
2022/07/29 09:46:41;;;;;;;;;4.50;3.50;;;;;28.58;28.59;101192.53;5033471;28;45385;-66
2022/07/29 09:49:14;;;;;;;;;3.75;3.75;;;;;28.52;28.12;101183.00;5032953;28;45478;-67
2022/07/29 09:51:41;;;;;;;;;5.50;4.50;;;;;28.53;28.02;101182.91;5028402;28;45571;-66
2022/07/29 09:54:26;;;;;;;;;4.50;4.50;;;;;28.66;28.25;101199.13;5034724;28;45603;-66
2022/07/29 09:56:53;;;;;;;;;3.75;3.75;;;;;28.66;28.01;101196.41;5037585;28;45604;-66
2022/07/29 09:59:20;;;;;;;;;4.00;4.00;;;;;28.70;28.36;101202.47;5036643;28;45564;-66
2022/07/29 10:01:46;;;;;;;;;5.25;5.00;;;;;28.68;28.21;101201.72;5032814;28;45788;-66
2022/07/29 10:04:12;;;;;;;;;5.50;4.25;;;;;28.66;28.31;101195.56;5032139;28;45612;-67
2022/07/29 10:07:01;;;;;;;;;4.25;4.25;;;;;28.64;28.26;101198.38;5033384;28;45450;-67
2022/07/29 10:09:27;;;;;;;;;4.75;4.25;;;;;28.60;28.21;101172.59;5033842;28;45566;-66
2022/07/29 10:12:08;;;;;;;;;3.50;3.50;;;;;28.78;28.25;101196.56;5035863;28;48109;-66
2022/07/29 10:14:35;;;;;;;;;4.00;4.00;;;;;28.72;27.99;101184.38;5034430;28;45329;-66
2022/07/29 10:17:02;;;;;;;;;4.00;4.00;;;;;28.83;27.75;101184.53;5031566;28;45335;-68
2022/07/29 10:19:32;;;;;;;;;5.00;4.00;;;;;28.87;27.83;101190.56;5033429;28;45744;-66
2022/07/29 10:22:00;;;;;;;;;3.00;3.00;;;;;28.90;27.90;101191.22;5032352;28;45873;-67
2022/07/29 10:24:30;;;;;;;;;0.75;0.75;;;;;28.94;27.40;101192.72;5069661;28;45436;-66
2022/07/29 10:27:03;;;;;;;;;5.00;5.00;;;;;28.88;27.81;101186.91;5032905;28;45512;-66
2022/07/29 10:29:40;;;;;;;;;5.25;4.75;;;;;28.99;27.90;101195.13;5033506;28;45514;-66
2022/07/29 10:32:26;;;;;;;;;4.00;4.00;;;;;29.14;27.39;101201.34;5031004;28;46475;-66
2022/07/29 10:35:38;;;;;;;;;5.00;5.00;;;;;29.15;27.44;101194.97;5027890;28;45490;-66
2022/07/29 10:38:16;;;;;;;;;4.00;4.00;;;;;29.09;27.33;101195.38;5008018;28;45393;-67
2022/07/29 10:41:29;;;;;;;;;8.50;8.00;;;;;29.10;27.53;101200.69;5035774;28;45695;-66
2022/07/29 10:43:59;;;;;;;;;7.50;7.50;;;;;29.22;27.89;101203.50;5032101;28;45486;-64
2022/07/29 10:46:26;;;;;;;;;7.25;6.00;;;;;29.33;27.58;101198.22;5034950;28;45510;-66
2022/07/29 10:49:08;;;;;;;;;7.00;6.75;;;;;29.42;27.42;101207.50;5032987;28;45663;-67
2022/07/29 10:51:55;;;;;;;;;6.75;5.00;;;;;29.51;27.35;101194.22;5034854;28;45457;-66
2022/07/29 10:54:38;;;;;;;;;4.75;4.75;;;;;29.64;27.36;101201.44;5035904;28;45563;-66
2022/07/29 10:57:22;;;;;;;;;5.00;5.00;;;;;29.65;27.13;101190.56;5030562;28;45357;-68
2022/07/29 10:59:54;;;;;;;;;3.50;3.50;;;;;29.77;27.03;101194.25;5033292;28;45216;-68
2022/07/29 11:02:44;;;;;;;;;6.50;6.50;;;;;29.79;26.90;101197.69;5034208;28;45503;-65
2022/07/29 11:05:19;;;;;;;;;4.50;4.50;;;;;29.84;26.83;101190.13;5031356;28;45616;-64
2022/07/29 11:08:12;;;;;;;;;5.25;5.00;;;;;29.91;26.66;101199.50;5036439;28;45392;-66
2022/07/29 11:10:39;;;;;;;;;5.00;5.00;;;;;29.95;26.34;101189.38;5036992;28;45561;-66
2022/07/29 11:13:05;;;;;;;;;6.50;5.50;;;;;29.99;26.27;101189.03;5035717;28;45401;-66
2022/07/29 11:15:53;;;;;;;;;8.50;5.75;;;;;29.84;26.93;101194.66;5036367;28;45396;-65
2022/07/29 11:18:20;;;;;;;;;6.25;6.25;;;;;29.59;26.84;101175.66;5031640;28;45425;-66
2022/07/29 11:20:52;;;;;;;;;4.00;4.00;;;;;29.61;27.04;101194.44;5032365;28;45459;-65
2022/07/29 11:23:27;;;;;;;;;6.25;5.50;;;;;29.71;27.26;101195.56;5031063;28;46041;-67
2022/07/29 11:26:11;;;;;;;;;6.25;6.00;;;;;29.84;26.34;101203.63;5031166;28;45464;-67
2022/07/29 11:28:42;;;;;;;;;5.50;5.50;;;;;29.99;26.36;101209.75;5025438;28;45434;-68
2022/07/29 11:31:10;;;;;;;;;5.25;5.25;;;;;30.03;26.52;101195.06;5030467;28;45402;-66
2022/07/29 11:33:36;;;;;;;;;6.75;5.75;;;;;30.17;26.61;101197.63;5032424;28;45470;-67
2022/07/29 11:36:11;;;;;;;;;7.75;7.75;;;;;30.23;25.94;101202.59;5028682;28;46346;-67
2022/07/29 11:38:43;;;;;;;;;7.00;7.00;;;;;30.22;26.34;101173.81;5031523;28;45541;-67
2022/07/29 11:41:35;;;;;;;;;6.00;5.75;;;;;30.52;26.24;101193.31;5046046;28;45666;-67